Time;durP1;ratioP1;P1;durP2;ratioP2;P2;SDS_P1;SDS_P2;PMS_P1;PMS_P2;Temp;Humidity;BMP_temperature;BMP_pressure;BME280_temperature;BME280_humidity;BME280_pressure;Samples;Min_cycle;Max_cycle;Signal;HPM_P1;HPM_P2
2022/05/30 00:01:57;;;;;;;9.47;1.60;;;9.60;99.90;;;;;;4934409;28;39925;-73
2022/05/30 00:04:23;;;;;;;8.60;1.58;;;9.60;99.90;;;;;;4937557;28;38129;-73
2022/05/30 00:06:49;;;;;;;6.53;2.20;;;9.70;99.90;;;;;;4955107;28;37440;-73
2022/05/30 00:09:15;;;;;;;8.53;1.73;;;9.70;99.90;;;;;;4943219;28;37224;-73
2022/05/30 00:11:42;;;;;;;8.15;1.60;;;9.70;99.90;;;;;;4941446;28;37737;-73
2022/05/30 00:14:08;;;;;;;4.70;1.50;;;9.70;99.90;;;;;;4938855;28;38970;-73
2022/05/30 00:16:34;;;;;;;6.33;1.57;;;9.80;99.90;;;;;;4949116;28;37760;-72
2022/05/30 00:19:00;;;;;;;6.67;1.50;;;9.80;99.90;;;;;;4946485;28;37164;-73
2022/05/30 00:21:27;;;;;;;7.28;1.73;;;9.80;99.90;;;;;;4940382;28;47186;-73
2022/05/30 00:23:53;;;;;;;7.57;1.80;;;9.80;99.90;;;;;;4942349;28;40111;-73
2022/05/30 00:26:21;;;;;;;11.03;2.47;;;9.80;99.90;;;;;;4941845;28;40311;-73
2022/05/30 00:28:48;;;;;;;8.93;2.22;;;9.80;99.90;;;;;;4944567;28;36761;-73
2022/05/30 00:31:16;;;;;;;11.77;1.47;;;9.80;99.90;;;;;;4932200;28;39260;-73
2022/05/30 00:33:45;;;;;;;3.10;1.38;;;9.80;99.90;;;;;;4946107;28;39205;-73
2022/05/30 00:36:11;;;;;;;8.70;1.83;;;9.70;99.90;;;;;;4932317;28;37390;-73
2022/05/30 00:38:39;;;;;;;9.00;1.73;;;9.70;99.90;;;;;;4939216;28;36272;-72
2022/05/30 00:41:06;;;;;;;8.57;2.38;;;9.70;99.90;;;;;;4939192;28;39703;-72
2022/05/30 00:43:37;;;;;;;5.47;1.23;;;9.60;99.90;;;;;;4941461;28;37645;-73
2022/05/30 00:46:12;;;;;;;7.53;1.52;;;9.70;99.90;;;;;;4938298;28;38688;-73
2022/05/30 00:48:44;;;;;;;8.27;1.90;;;9.70;99.90;;;;;;4936399;28;37890;-73
2022/05/30 00:51:14;;;;;;;7.13;1.40;;;9.80;99.90;;;;;;4939590;28;39843;-73
2022/05/30 00:53:43;;;;;;;4.05;1.35;;;9.70;99.90;;;;;;4944944;28;38728;-73
2022/05/30 00:56:11;;;;;;;10.38;2.00;;;9.70;99.90;;;;;;4943463;28;37455;-73
2022/05/30 00:58:43;;;;;;;11.48;1.45;;;9.60;99.90;;;;;;4953609;28;36497;-72
2022/05/30 01:01:10;;;;;;;10.88;1.98;;;9.50;99.90;;;;;;4936233;28;41050;-73
2022/05/30 01:06:32;;;;;;;9.33;1.40;;;9.40;99.90;;;;;;4939048;28;39648;-72
2022/05/30 01:09:14;;;;;;;7.68;1.80;;;9.40;99.90;;;;;;4960307;28;37975;-73
2022/05/30 01:12:05;;;;;;;6.28;1.55;;;9.30;99.90;;;;;;4941255;28;48908;-73
2022/05/30 01:14:35;;;;;;;4.17;1.50;;;9.30;99.90;;;;;;4933408;28;48134;-73
2022/05/30 01:17:05;;;;;;;6.05;1.42;;;9.30;99.90;;;;;;4938028;28;38428;-73
2022/05/30 01:19:34;;;;;;;10.07;1.98;;;9.30;99.90;;;;;;4942877;28;37308;-73
2022/05/30 01:22:53;;;;;;;7.50;1.47;;;9.40;99.90;;;;;;4956534;28;39314;-73
2022/05/30 01:25:41;;;;;;;6.03;1.48;;;9.40;99.90;;;;;;4903535;28;47219;-73
2022/05/30 01:28:22;;;;;;;5.87;1.30;;;9.40;99.90;;;;;;4911799;28;38665;-73
2022/05/30 01:30:49;;;;;;;6.57;2.17;;;9.50;99.90;;;;;;4915035;28;37635;-74
2022/05/30 01:33:16;;;;;;;6.53;1.80;;;9.50;99.90;;;;;;4940369;28;38971;-72
2022/05/30 01:35:42;;;;;;;10.18;1.70;;;9.50;99.90;;;;;;4945054;28;39627;-72
2022/05/30 01:38:08;;;;;;;4.97;1.67;;;9.60;99.90;;;;;;4957456;28;37066;-72
2022/05/30 01:40:35;;;;;;;7.38;1.75;;;9.60;99.90;;;;;;4945874;28;37251;-73
2022/05/30 01:43:01;;;;;;;5.57;1.17;;;9.70;99.90;;;;;;4939973;28;40995;-73
2022/05/30 01:45:27;;;;;;;6.50;1.70;;;9.80;99.90;;;;;;4938930;28;37312;-73
2022/05/30 01:47:54;;;;;;;10.23;1.67;;;9.80;99.90;;;;;;4942777;28;39173;-72
2022/05/30 01:50:24;;;;;;;4.80;1.58;;;9.80;99.90;;;;;;4945822;28;20091;-73
2022/05/30 01:52:50;;;;;;;5.68;1.10;;;9.80;99.90;;;;;;4939642;28;38979;-73
2022/05/30 01:55:16;;;;;;;6.07;1.15;;;9.90;99.90;;;;;;4943268;28;38823;-73
2022/05/30 01:57:42;;;;;;;6.28;1.70;;;9.90;99.90;;;;;;4943315;28;39382;-73
2022/05/30 02:00:10;;;;;;;5.63;1.30;;;9.90;99.90;;;;;;4942446;28;36804;-73
2022/05/30 02:02:37;;;;;;;6.30;1.35;;;9.90;99.90;;;;;;4942007;28;37590;-72
2022/05/30 02:05:06;;;;;;;5.20;1.35;;;9.90;99.90;;;;;;4958770;28;39441;-72
2022/05/30 02:07:32;;;;;;;6.63;1.30;;;9.90;99.90;;;;;;4940001;28;38651;-73
2022/05/30 02:09:58;;;;;;;8.27;1.38;;;9.80;99.90;;;;;;4959997;28;37299;-73
2022/05/30 02:12:24;;;;;;;4.75;1.25;;;9.90;99.90;;;;;;4954688;28;39612;-73
2022/05/30 02:14:50;;;;;;;7.60;1.35;;;9.90;99.90;;;;;;4949058;28;37936;-73
2022/05/30 02:17:16;;;;;;;5.97;1.45;;;9.90;99.90;;;;;;4943851;28;37932;-73
2022/05/30 02:19:44;;;;;;;6.55;1.30;;;9.80;99.90;;;;;;4945052;28;37748;-73
2022/05/30 02:22:19;;;;;;;9.75;1.40;;;9.90;99.90;;;;;;4946020;28;38030;-73
2022/05/30 02:24:48;;;;;;;4.57;1.30;;;9.90;99.90;;;;;;4944842;28;39865;-73
2022/05/30 02:27:15;;;;;;;6.28;1.33;;;9.90;99.90;;;;;;4943079;28;38485;-73
2022/05/30 02:29:43;;;;;;;4.22;1.23;;;9.80;99.90;;;;;;4941789;28;36771;-73
2022/05/30 02:32:09;;;;;;;4.55;1.10;;;9.90;99.90;;;;;;4941782;28;38452;-73
2022/05/30 02:37:21;;;;;;;6.10;1.23;;;9.90;99.90;;;;;;4942414;28;39171;-73
2022/05/30 02:39:47;;;;;;;5.57;1.55;;;9.90;99.90;;;;;;4940918;28;37564;-73
2022/05/30 02:42:13;;;;;;;7.00;1.58;;;9.90;99.90;;;;;;4957462;28;39653;-73
2022/05/30 02:44:39;;;;;;;4.93;1.23;;;9.90;99.90;;;;;;4938039;28;38987;-73
2022/05/30 02:47:06;;;;;;;3.17;0.85;;;9.90;99.90;;;;;;4938370;28;38620;-74
2022/05/30 02:49:32;;;;;;;5.20;1.35;;;9.90;99.90;;;;;;4945998;28;38946;-73
2022/05/30 02:51:59;;;;;;;6.05;1.30;;;9.90;99.90;;;;;;4946238;28;39791;-73
2022/05/30 02:54:25;;;;;;;7.75;1.83;;;9.80;99.90;;;;;;4947181;28;39509;-73
2022/05/30 02:56:53;;;;;;;2.20;1.10;;;9.80;99.90;;;;;;4945833;28;38422;-73
2022/05/30 02:59:20;;;;;;;3.95;1.15;;;9.80;99.90;;;;;;4958634;28;38566;-73
2022/05/30 03:01:46;;;;;;;9.07;1.63;;;9.70;99.90;;;;;;4942359;28;39193;-73
2022/05/30 03:04:13;;;;;;;6.32;1.35;;;9.70;99.90;;;;;;4944169;28;40261;-73
2022/05/30 03:06:40;;;;;;;5.95;1.50;;;9.70;99.90;;;;;;4948406;28;39254;-73
2022/05/30 03:09:06;;;;;;;7.85;1.50;;;9.60;99.90;;;;;;4944100;28;37192;-74
2022/05/30 03:11:33;;;;;;;8.75;1.90;;;9.60;99.90;;;;;;4947830;28;39390;-73
2022/05/30 03:13:59;;;;;;;6.40;1.35;;;9.60;99.90;;;;;;4961233;28;39699;-73
2022/05/30 03:16:25;;;;;;;10.43;1.83;;;9.60;99.90;;;;;;4930582;28;39244;-73
2022/05/30 03:18:51;;;;;;;8.48;1.75;;;9.60;99.90;;;;;;4944339;28;37176;-73
2022/05/30 03:21:17;;;;;;;6.10;1.83;;;9.50;99.90;;;;;;4950265;28;39563;-73
2022/05/30 03:23:43;;;;;;;7.35;1.50;;;9.50;99.90;;;;;;4948379;28;40312;-73
2022/05/30 03:26:11;;;;;;;4.75;1.10;;;9.50;99.90;;;;;;4948221;28;39130;-73
2022/05/30 03:28:38;;;;;;;6.97;1.65;;;9.60;99.90;;;;;;4945259;28;38396;-73
2022/05/30 03:31:08;;;;;;;3.50;1.48;;;9.50;99.90;;;;;;4958563;28;40699;-72
2022/05/30 03:33:39;;;;;;;3.83;1.20;;;9.50;99.90;;;;;;4946726;28;38873;-73
2022/05/30 03:36:27;;;;;;;6.80;1.48;;;9.60;99.90;;;;;;4947187;28;39153;-74
2022/05/30 03:38:54;;;;;;;5.97;1.38;;;9.70;99.90;;;;;;4947527;28;36859;-73
2022/05/30 03:41:20;;;;;;;6.70;1.52;;;9.70;99.90;;;;;;4945227;28;39783;-74
2022/05/30 03:43:46;;;;;;;6.33;1.33;;;9.70;99.90;;;;;;4941911;28;39991;-73
2022/05/30 03:46:12;;;;;;;7.20;1.52;;;9.80;99.90;;;;;;4939962;28;38481;-73
2022/05/30 03:48:38;;;;;;;5.40;1.77;;;9.80;99.90;;;;;;4953908;28;37880;-73
2022/05/30 03:51:07;;;;;;;9.02;1.85;;;9.90;99.90;;;;;;4939793;28;39032;-75
2022/05/30 03:53:33;;;;;;;4.53;1.45;;;9.90;99.90;;;;;;4957877;28;39611;-74
2022/05/30 03:55:59;;;;;;;5.60;1.55;;;9.90;99.90;;;;;;4955029;28;37627;-75
2022/05/30 03:58:26;;;;;;;5.90;1.20;;;9.80;99.90;;;;;;4940646;28;37034;-74
2022/05/30 04:00:52;;;;;;;4.95;1.20;;;9.80;99.90;;;;;;4937159;28;40801;-74
2022/05/30 04:03:18;;;;;;;5.55;1.77;;;9.70;99.90;;;;;;4936017;28;40863;-74
2022/05/30 04:05:44;;;;;;;5.40;1.10;;;9.80;99.90;;;;;;4939711;28;38881;-73
2022/05/30 04:08:10;;;;;;;6.38;1.70;;;9.80;99.90;;;;;;4942015;28;38140;-74
2022/05/30 04:10:36;;;;;;;4.90;1.23;;;9.70;99.90;;;;;;4947497;28;37600;-73
2022/05/30 04:13:06;;;;;;;4.32;1.13;;;9.70;99.90;;;;;;4947276;28;39533;-73
2022/05/30 04:15:33;;;;;;;4.72;1.20;;;9.60;99.90;;;;;;4951801;28;39244;-73
2022/05/30 04:17:59;;;;;;;7.50;1.30;;;9.60;99.90;;;;;;4945401;28;36894;-73
2022/05/30 04:20:26;;;;;;;5.07;0.98;;;9.50;99.90;;;;;;4936656;28;40077;-73
2022/05/30 04:22:52;;;;;;;5.80;1.42;;;9.60;99.90;;;;;;4941400;28;38410;-73
2022/05/30 04:25:18;;;;;;;4.85;1.33;;;9.40;99.90;;;;;;4945169;28;38698;-73
2022/05/30 04:27:44;;;;;;;7.60;1.17;;;9.20;99.90;;;;;;4940711;28;38216;-73
2022/05/30 04:30:10;;;;;;;2.17;0.90;;;9.20;99.90;;;;;;4951810;28;40492;-73
2022/05/30 04:32:37;;;;;;;6.07;1.33;;;9.20;99.90;;;;;;4951629;28;41200;-73
2022/05/30 04:35:08;;;;;;;6.03;1.40;;;9.30;99.90;;;;;;4954747;28;39038;-74
2022/05/30 04:37:35;;;;;;;5.22;1.30;;;9.30;99.90;;;;;;4935940;28;37016;-73
2022/05/30 04:40:02;;;;;;;3.87;1.53;;;9.40;99.90;;;;;;4931509;28;40422;-73
2022/05/30 04:42:28;;;;;;;4.63;1.37;;;9.40;99.90;;;;;;4954251;28;46785;-73
2022/05/30 04:44:54;;;;;;;5.00;1.33;;;9.60;99.90;;;;;;4939673;28;39292;-75
2022/05/30 04:47:20;;;;;;;5.85;1.55;;;9.70;99.90;;;;;;4956746;28;38836;-73
2022/05/30 04:49:47;;;;;;;5.32;1.27;;;9.60;99.90;;;;;;4946661;28;40657;-73
2022/05/30 04:52:14;;;;;;;4.50;1.33;;;9.70;99.90;;;;;;4946648;28;39000;-73
2022/05/30 04:54:40;;;;;;;5.90;1.33;;;9.70;99.90;;;;;;4939538;28;38560;-73
2022/05/30 04:57:07;;;;;;;5.72;1.23;;;9.80;99.90;;;;;;4939745;28;36187;-73
2022/05/30 04:59:33;;;;;;;4.43;1.30;;;9.90;99.90;;;;;;4938291;28;38937;-74
2022/05/30 05:01:59;;;;;;;4.85;1.27;;;10.00;99.90;;;;;;4952411;28;39750;-73
2022/05/30 05:04:25;;;;;;;4.53;1.15;;;10.20;99.90;;;;;;4944303;28;39054;-73
2022/05/30 05:06:51;;;;;;;3.25;0.88;;;10.50;99.90;;;;;;4944159;28;37237;-74
2022/05/30 05:09:17;;;;;;;4.07;0.90;;;10.80;99.90;;;;;;4937094;28;38586;-73
2022/05/30 05:11:45;;;;;;;2.65;0.80;;;11.10;99.90;;;;;;4935667;28;36842;-71
2022/05/30 05:14:12;;;;;;;4.65;0.93;;;11.50;99.90;;;;;;4936928;28;39205;-71
2022/05/30 05:16:38;;;;;;;2.78;0.90;;;11.70;99.90;;;;;;4950060;28;37700;-71
2022/05/30 05:19:06;;;;;;;1.95;0.57;;;12.00;99.90;;;;;;4934515;28;39552;-71
2022/05/30 05:21:35;;;;;;;3.47;1.02;;;12.10;99.90;;;;;;4939467;28;39162;-72
2022/05/30 05:24:03;;;;;;;3.65;1.10;;;12.10;99.90;;;;;;4931028;28;37620;-72
2022/05/30 05:26:30;;;;;;;2.38;0.70;;;12.00;99.90;;;;;;4936673;28;37677;-72
2022/05/30 05:28:57;;;;;;;5.07;0.80;;;12.40;99.90;;;;;;4932381;28;39263;-72
2022/05/30 05:31:34;;;;;;;4.65;0.80;;;12.60;99.90;;;;;;4945533;28;39538;-73
2022/05/30 05:34:06;;;;;;;2.00;0.90;;;12.70;99.90;;;;;;4944238;28;39218;-73
2022/05/30 05:36:35;;;;;;;4.20;1.13;;;12.70;99.90;;;;;;4938096;28;47466;-74
2022/05/30 05:39:02;;;;;;;3.67;1.00;;;12.50;99.90;;;;;;4934131;28;39265;-74
2022/05/30 05:41:28;;;;;;;4.82;1.13;;;12.40;99.90;;;;;;4936288;28;39614;-73
2022/05/30 05:43:55;;;;;;;7.10;1.20;;;12.40;99.90;;;;;;4940809;28;38311;-73
2022/05/30 05:46:24;;;;;;;4.20;1.15;;;12.50;99.90;;;;;;4938002;28;36311;-74
2022/05/30 05:48:54;;;;;;;3.03;0.80;;;12.60;99.90;;;;;;4941455;28;38398;-74
2022/05/30 05:51:21;;;;;;;2.10;0.70;;;13.00;99.90;;;;;;4942259;28;40192;-73
2022/05/30 05:53:48;;;;;;;3.70;1.00;;;13.10;99.90;;;;;;4948340;28;38614;-73
2022/05/30 05:56:26;;;;;;;2.50;0.95;;;13.30;99.90;;;;;;4943550;28;38491;-74
2022/05/30 05:58:53;;;;;;;2.67;0.70;;;13.00;99.90;;;;;;4959532;28;39564;-73
2022/05/30 06:01:24;;;;;;;1.80;0.60;;;13.10;99.90;;;;;;4944493;28;40068;-74
2022/05/30 06:03:56;;;;;;;5.38;0.82;;;13.50;99.90;;;;;;4957656;28;40325;-74
2022/05/30 06:06:23;;;;;;;4.88;1.13;;;13.90;99.90;;;;;;4959811;28;38254;-74
2022/05/30 06:08:50;;;;;;;5.00;1.45;;;13.60;99.90;;;;;;4963730;28;40180;-74
2022/05/30 06:11:17;;;;;;;4.00;1.02;;;12.90;99.90;;;;;;4954861;28;38298;-74
2022/05/30 06:13:46;;;;;;;4.50;0.90;;;12.70;99.90;;;;;;4941417;28;39337;-73
2022/05/30 06:16:20;;;;;;;2.58;0.68;;;12.80;99.90;;;;;;4952559;28;36984;-73
2022/05/30 06:18:48;;;;;;;2.72;0.77;;;12.90;99.90;;;;;;4964524;28;39651;-74
2022/05/30 06:21:15;;;;;;;4.18;1.00;;;12.40;99.90;;;;;;4945702;28;38340;-73
2022/05/30 06:23:44;;;;;;;2.40;0.70;;;11.90;99.90;;;;;;4945409;28;39877;-73
2022/05/30 06:26:10;;;;;;;3.50;1.10;;;12.00;99.90;;;;;;4947874;28;37050;-73
2022/05/30 06:28:38;;;;;;;2.78;0.85;;;11.80;99.90;;;;;;4947888;28;38816;-74
2022/05/30 06:31:18;;;;;;;4.97;1.00;;;11.60;99.90;;;;;;4942918;28;40388;-74
2022/05/30 06:33:45;;;;;;;3.78;0.73;;;11.60;99.90;;;;;;4960596;28;39353;-75
2022/05/30 06:36:14;;;;;;;5.15;0.90;;;11.60;99.90;;;;;;4949762;28;35774;-74
2022/05/30 06:38:40;;;;;;;4.75;1.10;;;11.60;99.90;;;;;;4946442;28;37141;-75
2022/05/30 06:41:19;;;;;;;8.40;1.40;;;11.60;99.90;;;;;;4953256;28;38247;-75
2022/05/30 06:43:46;;;;;;;6.95;1.00;;;11.50;99.90;;;;;;4948610;28;39345;-75
2022/05/30 06:46:14;;;;;;;4.97;0.90;;;11.20;99.90;;;;;;4962611;28;39075;-75
2022/05/30 06:48:41;;;;;;;4.20;0.73;;;11.20;99.90;;;;;;4953880;28;38878;-74
2022/05/30 06:51:10;;;;;;;4.25;1.13;;;11.20;99.90;;;;;;4947391;28;39585;-74
2022/05/30 06:53:36;;;;;;;5.03;1.00;;;11.20;99.90;;;;;;4944739;28;38065;-74
2022/05/30 06:56:10;;;;;;;4.72;1.10;;;11.30;99.90;;;;;;4949692;28;37879;-74
2022/05/30 06:58:36;;;;;;;4.85;1.65;;;11.60;99.90;;;;;;4927019;28;39611;-75
2022/05/30 07:01:02;;;;;;;8.82;0.95;;;11.80;99.90;;;;;;4940958;28;38955;-74
2022/05/30 07:03:28;;;;;;;4.95;0.90;;;11.70;99.90;;;;;;4960450;28;39796;-75
2022/05/30 07:05:54;;;;;;;3.88;1.42;;;11.60;99.90;;;;;;4945277;28;38105;-74
2022/05/30 07:08:23;;;;;;;3.67;1.00;;;11.70;99.90;;;;;;4944106;28;38351;-74
2022/05/30 07:10:51;;;;;;;5.32;1.00;;;11.80;99.90;;;;;;4947555;28;40221;-76
2022/05/30 07:13:17;;;;;;;4.28;0.80;;;11.80;99.90;;;;;;4948771;28;38389;-76
2022/05/30 07:15:48;;;;;;;2.55;0.82;;;11.80;99.90;;;;;;4946462;28;37960;-74
2022/05/30 07:18:15;;;;;;;3.92;0.93;;;11.90;99.90;;;;;;4941423;28;40874;-74
2022/05/30 07:20:42;;;;;;;4.47;0.98;;;11.90;99.90;;;;;;4944696;28;40043;-75
2022/05/30 07:23:08;;;;;;;2.92;0.98;;;11.80;99.90;;;;;;4942739;28;39515;-74
2022/05/30 07:25:36;;;;;;;4.25;1.00;;;11.80;99.90;;;;;;4946463;28;37336;-74
2022/05/30 07:28:03;;;;;;;4.20;1.00;;;11.90;99.90;;;;;;4955190;28;40943;-73
2022/05/30 07:30:30;;;;;;;4.43;1.00;;;11.80;99.90;;;;;;4948148;28;40304;-73
2022/05/30 07:32:56;;;;;;;5.13;1.00;;;11.70;99.90;;;;;;4961680;28;39089;-75
2022/05/30 07:35:23;;;;;;;4.65;1.20;;;11.70;99.90;;;;;;4943178;28;38307;-73
2022/05/30 07:37:50;;;;;;;3.70;1.15;;;11.60;99.90;;;;;;4950571;28;39513;-73
2022/05/30 07:40:17;;;;;;;3.15;1.00;;;11.60;99.90;;;;;;4950573;28;38736;-74
2022/05/30 07:42:43;;;;;;;3.83;1.15;;;11.50;99.90;;;;;;4951359;28;37538;-74
2022/05/30 07:45:10;;;;;;;5.28;1.00;;;11.50;99.90;;;;;;4956613;28;38154;-73
2022/05/30 07:47:37;;;;;;;5.57;1.63;;;11.50;99.90;;;;;;4948515;28;39308;-75
2022/05/30 07:50:05;;;;;;;5.60;1.05;;;11.50;99.90;;;;;;4951536;28;39714;-74
2022/05/30 07:52:32;;;;;;;4.20;0.80;;;11.50;99.90;;;;;;4945236;28;38727;-74
2022/05/30 07:54:58;;;;;;;4.00;0.68;;;11.40;99.90;;;;;;4933467;28;37824;-74
2022/05/30 08:00:12;;;;;;;5.32;0.80;;;11.70;99.90;;;;;;4944953;28;39410;-74
2022/05/30 08:02:39;;;;;;;1.75;0.60;;;11.60;99.90;;;;;;4943357;28;38090;-74
2022/05/30 08:05:08;;;;;;;4.68;1.15;;;11.90;99.90;;;;;;4949784;28;36854;-74
2022/05/30 08:07:35;;;;;;;4.93;1.00;;;12.00;99.90;;;;;;4949990;28;39506;-74
2022/05/30 08:10:02;;;;;;;7.82;0.88;;;12.10;99.90;;;;;;4948047;28;37606;-74
2022/05/30 08:12:29;;;;;;;3.83;0.80;;;12.10;99.90;;;;;;4959012;28;47887;-75
2022/05/30 08:14:56;;;;;;;5.30;0.90;;;12.30;99.90;;;;;;4937356;28;37039;-75
2022/05/30 08:17:22;;;;;;;2.22;0.50;;;12.40;99.90;;;;;;4944665;28;38589;-76
2022/05/30 08:19:48;;;;;;;6.05;1.02;;;13.30;99.90;;;;;;4957555;28;39498;-77
2022/05/30 08:22:14;;;;;;;3.55;0.90;;;14.40;99.90;;;;;;4940877;28;37140;-75
2022/05/30 08:24:43;;;;;;;3.63;0.90;;;14.70;99.90;;;;;;4944813;28;37746;-77
2022/05/30 08:27:09;;;;;;;3.28;0.70;;;14.60;99.90;;;;;;4942213;28;40702;-76
2022/05/30 08:29:36;;;;;;;7.20;1.25;;;14.40;99.90;;;;;;4942375;28;38895;-77
2022/05/30 08:32:05;;;;;;;4.88;0.90;;;14.30;99.90;;;;;;4944017;28;39250;-77
2022/05/30 08:34:33;;;;;;;3.65;0.70;;;13.80;99.90;;;;;;4942763;28;36335;-75
2022/05/30 08:37:01;;;;;;;1.90;0.70;;;13.60;99.90;;;;;;4944682;28;39650;-75
2022/05/30 08:42:11;;;;;;;1.95;0.65;;;12.90;99.90;;;;;;4947733;28;38978;-74
2022/05/30 08:44:38;;;;;;;2.92;0.70;;;12.80;99.90;;;;;;4945667;28;37650;-74
2022/05/30 08:47:41;;;;;;;3.72;0.68;;;12.70;99.90;;;;;;4945092;28;40208;-74
2022/05/30 08:50:21;;;;;;;3.42;0.80;;;12.60;99.90;;;;;;4945965;28;39591;-74
2022/05/30 08:53:30;;;;;;;3.65;0.80;;;12.40;99.90;;;;;;4941188;28;39544;-74
2022/05/30 08:56:06;;;;;;;4.63;0.80;;;12.40;99.90;;;;;;4939380;28;47350;-74
2022/05/30 08:58:53;;;;;;;1.98;0.50;;;12.40;99.90;;;;;;4939939;28;46946;-75
2022/05/30 09:01:31;;;;;;;3.33;0.80;;;12.40;99.90;;;;;;4945081;28;39034;-72
2022/05/30 09:04:09;;;;;;;2.55;0.68;;;12.40;99.90;;;;;;4945352;28;38245;-72
2022/05/30 09:06:49;;;;;;;7.30;0.85;;;12.40;99.90;;;;;;4942487;28;48664;-72
2022/05/30 09:09:34;;;;;;;3.85;0.98;;;12.50;99.90;;;;;;4940807;28;38909;-73
2022/05/30 09:12:25;;;;;;;3.58;1.13;;;12.40;99.90;;;;;;4946437;28;40962;-73
2022/05/30 09:14:58;;;;;;;3.33;0.60;;;12.30;99.90;;;;;;4958036;28;47202;-73
2022/05/30 09:17:37;;;;;;;2.35;0.43;;;12.30;99.90;;;;;;4942590;28;37300;-72
2022/05/30 09:20:08;;;;;;;1.95;0.55;;;12.30;99.90;;;;;;4940045;28;39734;-72
2022/05/30 09:22:38;;;;;;;2.47;0.77;;;12.30;99.90;;;;;;4944543;28;38945;-75
2022/05/30 09:27:51;;;;;;;2.72;0.80;;;12.30;99.90;;;;;;4944241;28;37164;-73
2022/05/30 09:30:25;;;;;;;1.20;0.55;;;12.30;99.90;;;;;;4941650;28;38728;-73
2022/05/30 09:33:09;;;;;;;1.85;0.73;;;12.40;99.90;;;;;;4942545;28;39082;-73
2022/05/30 09:35:35;;;;;;;3.88;0.95;;;12.40;99.90;;;;;;4942579;28;49039;-74
2022/05/30 09:38:19;;;;;;;2.22;0.60;;;12.40;99.90;;;;;;4943828;28;37411;-73
2022/05/30 09:40:54;;;;;;;2.63;0.75;;;12.40;99.90;;;;;;4935846;28;47325;-72
2022/05/30 09:43:30;;;;;;;3.90;0.70;;;12.40;99.90;;;;;;4924707;28;39300;-73
2022/05/30 09:46:14;;;;;;;1.63;0.70;;;12.30;99.90;;;;;;4963560;28;38150;-73
2022/05/30 09:48:46;;;;;;;2.40;0.50;;;12.20;99.90;;;;;;4956795;28;47161;-73
2022/05/30 09:51:30;;;;;;;2.67;0.93;;;12.30;99.90;;;;;;4942513;28;40309;-73
2022/05/30 09:53:56;;;;;;;4.35;0.52;;;12.30;99.90;;;;;;4942542;28;39151;-73
2022/05/30 09:56:23;;;;;;;2.60;0.80;;;12.30;99.90;;;;;;4943687;28;39623;-73
2022/05/30 09:59:03;;;;;;;3.90;0.80;;;12.30;99.90;;;;;;4962198;28;38861;-74
2022/05/30 10:01:33;;;;;;;1.48;0.68;;;12.40;99.90;;;;;;4919757;28;39599;-73
2022/05/30 10:04:19;;;;;;;5.60;0.90;;;12.60;99.90;;;;;;4943158;28;39340;-73
2022/05/30 10:07:10;;;;;;;2.83;0.80;;;12.70;99.90;;;;;;4955726;28;47095;-73
2022/05/30 10:10:00;;;;;;;4.18;0.70;;;12.70;99.90;;;;;;4946724;28;47293;-73
2022/05/30 10:12:37;;;;;;;4.88;0.70;;;12.80;99.90;;;;;;4940922;28;40834;-73
2022/05/30 10:15:27;;;;;;;1.73;0.70;;;12.90;99.90;;;;;;4964315;28;39584;-73
2022/05/30 10:17:56;;;;;;;1.20;0.60;;;12.90;99.90;;;;;;4952663;28;39330;-73
2022/05/30 10:20:37;;;;;;;4.22;0.90;;;13.00;99.90;;;;;;4949477;28;38317;-73
2022/05/30 10:29:04;;;;;;;3.67;0.93;;;13.30;99.90;;;;;;4938032;28;39129;-73
2022/05/30 10:32:02;;;;;;;3.50;1.00;;;13.40;99.90;;;;;;4942764;28;49845;-74
2022/05/30 10:34:53;;;;;;;3.78;1.10;;;13.60;99.90;;;;;;4957664;28;47075;-74
2022/05/30 10:37:38;;;;;;;11.27;1.90;;;13.80;99.90;;;;;;4963633;28;37551;-73
2022/05/30 10:40:27;;;;;;;4.53;0.93;;;13.90;99.90;;;;;;4952446;28;39523;-74
2022/05/30 10:43:07;;;;;;;2.03;0.80;;;14.20;99.90;;;;;;4954782;28;37849;-74
2022/05/30 10:45:45;;;;;;;2.17;0.73;;;14.70;99.90;;;;;;4924421;28;46922;-74
2022/05/30 10:48:28;;;;;;;3.55;0.77;;;15.00;99.90;;;;;;4941269;28;39387;-74
2022/05/30 10:51:08;;;;;;;4.35;0.93;;;15.00;99.90;;;;;;4944123;28;37452;-73
2022/05/30 10:53:36;;;;;;;5.88;1.00;;;14.90;99.90;;;;;;4948741;28;48498;-75
2022/05/30 10:56:16;;;;;;;4.00;0.70;;;14.80;99.90;;;;;;4941087;28;39459;-76
2022/05/30 10:59:01;;;;;;;2.80;0.70;;;14.70;99.90;;;;;;4916810;28;37864;-75
2022/05/30 11:01:48;;;;;;;7.38;0.82;;;14.60;99.90;;;;;;4962814;28;37487;-75
2022/05/30 11:04:22;;;;;;;3.95;0.65;;;14.50;99.90;;;;;;4957395;28;36246;-74
2022/05/30 11:06:49;;;;;;;4.35;0.88;;;14.40;99.90;;;;;;4957180;28;38928;-74
2022/05/30 11:09:27;;;;;;;1.65;0.50;;;14.20;99.90;;;;;;4948981;28;38507;-74
2022/05/30 11:11:55;;;;;;;4.78;0.65;;;14.20;99.90;;;;;;4961985;28;37364;-74
2022/05/30 11:14:40;;;;;;;2.38;0.65;;;14.10;99.90;;;;;;4946741;28;37386;-74
2022/05/30 11:17:23;;;;;;;2.70;0.75;;;14.10;99.90;;;;;;4957541;28;37576;-75
2022/05/30 11:20:02;;;;;;;2.63;0.70;;;14.00;99.90;;;;;;4959830;28;38732;-75
2022/05/30 11:22:36;;;;;;;3.00;0.90;;;14.00;99.90;;;;;;4941579;28;48774;-75
2022/05/30 11:25:05;;;;;;;1.77;0.60;;;14.00;99.90;;;;;;4944217;28;37305;-75
2022/05/30 11:27:39;;;;;;;2.55;0.77;;;14.00;99.90;;;;;;4944112;28;39030;-75
2022/05/30 11:30:23;;;;;;;2.70;0.65;;;14.20;99.90;;;;;;4946356;28;39069;-74
2022/05/30 11:33:04;;;;;;;7.70;0.90;;;14.30;99.90;;;;;;4940007;28;37694;-74
2022/05/30 11:35:43;;;;;;;4.10;0.52;;;14.30;99.90;;;;;;4956653;28;47330;-75
2022/05/30 11:38:46;;;;;;;3.70;0.70;;;14.50;99.90;;;;;;4944377;28;38724;-75
2022/05/30 11:41:37;;;;;;;3.30;0.90;;;14.40;99.90;;;;;;4942996;28;40874;-75
2022/05/30 11:44:28;;;;;;;2.50;0.57;;;14.50;99.90;;;;;;4957590;28;38679;-74
2022/05/30 11:47:15;;;;;;;3.13;0.77;;;14.60;99.90;;;;;;4941574;28;37468;-75
2022/05/30 11:49:54;;;;;;;3.60;0.90;;;14.60;99.90;;;;;;4936683;28;48999;-74
2022/05/30 11:52:26;;;;;;;3.10;0.80;;;14.60;99.90;;;;;;4941626;28;41704;-75
2022/05/30 11:54:57;;;;;;;2.30;0.80;;;14.70;99.90;;;;;;4938835;28;37459;-74
2022/05/30 11:57:45;;;;;;;4.15;1.15;;;14.60;99.90;;;;;;4947496;28;37567;-74
2022/05/30 12:00:21;;;;;;;2.47;0.80;;;14.70;99.90;;;;;;4958122;28;38752;-74
2022/05/30 12:02:59;;;;;;;4.07;0.80;;;14.90;99.90;;;;;;4959416;28;40416;-74
2022/05/30 12:05:57;;;;;;;3.33;1.05;;;15.00;99.90;;;;;;4956251;28;37501;-75
2022/05/30 12:08:23;;;;;;;4.70;1.17;;;15.00;99.90;;;;;;4943408;28;37988;-74
2022/05/30 12:11:04;;;;;;;3.42;0.90;;;15.10;99.90;;;;;;4936530;28;39371;-74
2022/05/30 12:13:45;;;;;;;2.50;0.80;;;15.20;99.90;;;;;;4946177;28;48804;-76
2022/05/30 12:16:26;;;;;;;4.78;1.25;;;15.10;99.90;;;;;;4939575;28;39503;-74
2022/05/30 12:24:40;;;;;;;4.45;0.80;;;15.40;99.90;;;;;;4948685;28;49306;-75
2022/05/30 12:27:11;;;;;;;4.07;0.80;;;15.50;99.90;;;;;;4945032;28;38634;-76
2022/05/30 12:29:40;;;;;;;4.25;1.05;;;15.50;99.90;;;;;;4961458;28;37392;-74
2022/05/30 12:32:21;;;;;;;2.50;0.80;;;15.20;99.90;;;;;;4956550;28;37664;-75
2022/05/30 12:35:05;;;;;;;3.58;1.05;;;15.20;99.90;;;;;;4948243;28;39083;-75
2022/05/30 12:37:44;;;;;;;4.38;1.25;;;15.20;99.90;;;;;;4952091;28;49293;-75
2022/05/30 12:40:19;;;;;;;3.75;1.33;;;15.10;99.90;;;;;;4962350;28;37060;-75
2022/05/30 12:42:55;;;;;;;2.88;0.90;;;14.80;99.90;;;;;;4945302;28;39197;-74
2022/05/30 12:45:33;;;;;;;4.55;0.93;;;14.80;99.90;;;;;;4949616;28;39001;-75
2022/05/30 12:48:16;;;;;;;3.80;0.90;;;14.60;99.90;;;;;;4958709;28;38925;-74
2022/05/30 12:50:52;;;;;;;4.88;1.77;;;14.70;99.90;;;;;;4940463;28;48494;-74
2022/05/30 12:53:23;;;;;;;7.90;1.00;;;14.70;99.90;;;;;;4946380;28;39196;-75
2022/05/30 12:55:52;;;;;;;7.43;1.10;;;14.80;99.90;;;;;;4942752;28;39428;-75
2022/05/30 12:58:42;;;;;;;5.88;1.05;;;14.70;99.90;;;;;;4944669;28;38028;-75
2022/05/30 13:01:27;;;;;;;2.90;1.08;;;14.80;99.90;;;;;;4959891;28;36085;-75
2022/05/30 13:04:26;;;;;;;5.85;1.30;;;14.90;99.90;;;;;;4940198;28;38884;-75
2022/05/30 13:06:58;;;;;;;7.05;1.30;;;14.90;99.90;;;;;;4959346;28;47598;-75
2022/05/30 13:09:36;;;;;;;4.13;1.38;;;15.00;99.90;;;;;;4964539;28;36421;-75
2022/05/30 13:12:08;;;;;;;4.90;0.98;;;15.20;99.90;;;;;;4944608;28;36468;-75
2022/05/30 13:14:37;;;;;;;4.25;1.38;;;15.30;99.90;;;;;;4945624;28;38150;-75
2022/05/30 13:17:24;;;;;;;3.70;0.85;;;15.30;99.90;;;;;;4939810;28;38757;-76
2022/05/30 13:20:00;;;;;;;4.18;1.30;;;15.40;99.90;;;;;;4946844;28;39496;-75
2022/05/30 13:22:35;;;;;;;4.82;1.55;;;15.50;99.90;;;;;;4952219;28;38027;-75
2022/05/30 13:25:05;;;;;;;6.65;1.05;;;15.60;99.90;;;;;;4963956;28;39712;-76
2022/05/30 13:27:31;;;;;;;2.63;0.95;;;15.80;99.90;;;;;;4941970;28;47548;-75
2022/05/30 13:30:06;;;;;;;2.90;1.02;;;16.00;99.90;;;;;;4943849;28;39068;-75
2022/05/30 13:32:33;;;;;;;2.83;0.98;;;15.70;99.90;;;;;;4967883;23;47085;-85
2022/05/30 13:35:04;;;;;;;3.42;1.10;;;15.80;99.90;;;;;;4984902;28;38616;-86
2022/05/30 13:37:33;;;;;;;3.55;1.02;;;15.70;99.90;;;;;;4982808;28;48525;-85
2022/05/30 13:40:08;;;;;;;7.30;1.38;;;15.50;99.90;;;;;;4991236;28;38303;-85